AirNav   Everest Fuels
 
 1390 users online  

MO45 Sky-Vu Airport
Montgomery City, Missouri, USA

GOING TO MONTGOMERY CITY?


FAA INFORMATION EFFECTIVE 01 DECEMBER 2022

Location

FAA Identifier: MO45
Lat/Long: 38-53-32.0000N 091-33-57.5900W
38-53.533333N 091-33.959833W
38.8922222,-91.5659972
(estimated)
Elevation: 800 ft. / 244 m (estimated)
Variation: 01E (2000)
From city: 6 miles SW of MONTGOMERY CITY, MO
Time zone: UTC -6 (UTC -5 during Daylight Saving Time)
Zip code: 63361

Airport Operations

Airport use: Private use. Permission required prior to landing
Activation date: 12/2000
Control tower: no
ARTCC: KANSAS CITY CENTER
FSS: COLUMBIA FLIGHT SERVICE STATION
Attendance: UNATNDD
Wind indicator: yes
Segmented circle: no

Airport Communications

WX AWOS-3PT at MYJ (20 nm NW): 120.575 (573-581-7868)

Nearby radio navigation aids

VOR radial/distance  VOR name  Freq  Var
HLVr111/29.4HALLSVILLE VORTAC114.2006E
FTZr288/30.2FORISTELL VORTAC110.8005E
COUr081/30.9COLUMBIA VOR/DME110.2000E

Airport Services

Runway Information

Runway 1/19

Dimensions: 1700 x 75 ft. / 518 x 23 m
Surface: turf
Runway edge markings: RY 01/19 OUTLINED WITH RED FLORESCENT LGTS.
RUNWAY 1  RUNWAY 19
Traffic pattern: leftleft
Obstructions: 50 ft. trees, 300 ft. from runway50 ft. trees, 300 ft. from runway

Airport Ownership and Management from official FAA records

Ownership: Privately-owned
Owner: KARMUN L. KING
199 HWY J
MONTGOMERY CITY, MO 63361
Phone 573-564-8014
Manager: KARMUN L. KING
199 HWY J
MONTGOMERY CITY, MO 63361
Phone 573-564-8014

Airport Operational Statistics

Aircraft based on the field: 1
Single engine airplanes: 1
    

Additional Remarks

FOR CD CTC MIZZOU APCH AT 417-868-5620/5619.

Instrument Procedures

There are no published instrument procedures at MO45.

Some nearby airports with instrument procedures:

KMYJ - Mexico Memorial Airport (20 nm NW)
KFTT - Elton Hensley Memorial Airport (21 nm W)
KCOU - Columbia Regional Airport (31 nm W)
KFYG - Washington Regional Airport (32 nm SE)
H19 - Bowling Green Municipal Airport (33 nm NE)
 
Loc | Ops | Rwys | IFR | FBO | Links
Com | Nav | Svcs | Stats | Notes
Area around MO45 (Sky-Vu Airport)
 
Road maps at: MapQuest Bing Google
 
Aerial photo
No photo
 
Sectional chart

 
Airport distance calculator
Flying to Sky-Vu Airport? Find the distance to fly.

From to MO45

Sunrise and sunset
Times for 02-Dec-2022
 Local
(UTC-6)
 Zulu
(UTC)
Morning civil twilight06:3812:38
Sunrise07:0813:08
Sunset16:4422:44
Evening civil twilight17:1323:13

Current date and time
Zulu (UTC)  02-Dec-2022 17:36:41
Local (UTC-6)  02-Dec-2022 11:36:41
 
METAR
KMYJ 
20nm NW 
021715Z AUTO 20024G34KT 10SM BKN027 13/06 A2981 RMK AO2
KCOU 
31nm W 
021654Z 19021G30KT 10SM BKN028 14/05 A2984 RMK AO2 PK WND 19032/1611 SLP104 T01390050
KFYG 
32nm SE 
021715Z AUTO 18015KT 10SM OVC031 14/03 A2992 RMK AO2
KJEF 
32nm SW 
021653Z 19018G25KT 10SM OVC031 15/06 A2986 RMK AO2 PK WND 19031/1604 SLP103 T01500056 $
TAF
KCOU 
31nm W 
021129Z 0212/0312 17011G17KT P6SM BKN030 FM021700 20022G39KT P6SM BKN030 FM022300 21015G25KT P6SM BKN035 FM030400 26019G34KT P6SM SCT035 FM030900 32014G24KT P6SM FEW240
KJEF 
32nm SW 
021454Z 0215/0312 16012G22KT P6SM OVC030 FM021700 20022G39KT P6SM BKN030 FM022300 21015G25KT P6SM BKN035 FM030400 26019G34KT P6SM SCT035 FM030900 32014G24KT P6SM FEW240
NOTAMs
Click for the latest NOTAMs
NOTAMs are issued by the DoD/FAA and will open in a separate window not controlled by AirNav.

 

 
 

Would you like to see your business listed on this page?

 If your business provides an interesting product or service to pilots, flight crews, aircraft, or users of the Sky-Vu Airport, you should consider listing it here.  To start the listing process, click on the button below
 
Add a business
 

Other Pages about Sky-Vu Airport

Update a link
 
Copyright © AirNav, LLC. All rights reserved. Privacy Policy  Contact